createdAt,value
2018-02-17T00:01:01.414Z,12.15
2018-02-17T00:03:30.200Z,12.88
2018-02-17T00:05:58.959Z,11.40
2018-02-17T00:08:26.991Z,14.27
2018-02-17T00:10:54.959Z,13.35
2018-02-17T00:13:24.897Z,11.90
2018-02-17T00:15:52.846Z,12.73
2018-02-17T00:18:21.662Z,13.65
2018-02-17T00:20:49.753Z,12.50
2018-02-17T00:23:17.805Z,12.52
2018-02-17T00:25:45.781Z,12.95
2018-02-17T00:28:13.915Z,12.10
2018-02-17T00:30:41.906Z,14.95
2018-02-17T00:33:10.895Z,13.27
2018-02-17T00:35:39.624Z,12.98
2018-02-17T00:38:07.605Z,14.98
2018-02-17T00:40:35.655Z,13.32
2018-02-17T00:43:04.846Z,13.30
2018-02-17T00:45:32.824Z,13.50
2018-02-17T00:48:00.798Z,14.15
2018-02-17T00:50:28.810Z,12.63
2018-02-17T00:52:56.847Z,13.90
2018-02-17T00:55:24.838Z,14.18
2018-02-17T00:57:52.834Z,13.52
2018-02-17T01:00:20.851Z,13.90
2018-02-17T01:02:48.892Z,13.23
2018-02-17T01:05:16.936Z,13.00
2018-02-17T01:07:45.046Z,14.05
2018-02-17T01:10:13.020Z,14.02
2018-02-17T01:12:42.010Z,13.20
2018-02-17T01:15:13.454Z,11.55
2018-02-17T01:17:41.437Z,11.10
2018-02-17T01:20:09.529Z,11.75
2018-02-17T01:22:37.536Z,12.65
2018-02-17T01:25:06.248Z,12.65
2018-02-17T01:27:34.258Z,10.98
2018-02-17T01:30:02.282Z,11.15
2018-02-17T01:32:30.324Z,10.65
2018-02-17T01:34:58.270Z,9.98
2018-02-17T01:37:27.051Z,10.80
2018-02-17T01:39:55.031Z,9.77
2018-02-17T01:42:23.855Z,9.60
2018-02-17T01:44:51.797Z,9.48
2018-02-17T01:47:20.556Z,10.15
2018-02-17T01:49:48.567Z,11.07
2018-02-17T01:52:16.550Z,12.10
2018-02-17T01:54:44.608Z,11.60
2018-02-17T01:57:12.595Z,11.10
2018-02-17T01:59:40.634Z,11.05
2018-02-17T02:02:08.568Z,10.50
2018-02-17T02:04:36.595Z,10.60
2018-02-17T02:07:06.068Z,9.93
2018-02-17T02:09:34.094Z,10.55
2018-02-17T02:12:02.040Z,11.18
2018-02-17T02:14:30.045Z,10.60
2018-02-17T02:16:58.007Z,12.13
2018-02-17T02:19:26.024Z,11.25
2018-02-17T02:21:54.021Z,11.23
2018-02-17T02:24:26.919Z,10.93
2018-02-17T02:26:54.852Z,9.80
2018-02-17T02:29:22.839Z,11.30
2018-02-17T02:31:50.759Z,10.63
2018-02-17T02:34:18.771Z,11.80
2018-02-17T02:36:46.711Z,10.50
2018-02-17T02:39:14.713Z,11.65
2018-02-17T02:41:42.684Z,10.95
2018-02-17T02:44:10.697Z,10.68
2018-02-17T02:46:38.646Z,11.95
2018-02-17T02:49:06.658Z,10.43
2018-02-17T02:51:34.648Z,11.73
2018-02-17T02:54:02.788Z,10.80
2018-02-17T02:56:30.784Z,11.55
2018-02-17T02:58:58.749Z,10.93
2018-02-17T03:01:26.751Z,11.82
2018-02-17T03:03:54.686Z,12.18
2018-02-17T03:06:22.725Z,11.63
2018-02-17T03:08:50.696Z,11.48
2018-02-17T03:11:18.687Z,10.20
2018-02-17T03:13:46.604Z,10.45
2018-02-17T03:16:14.610Z,10.95
2018-02-17T03:18:42.562Z,10.75
2018-02-17T03:21:10.560Z,11.05
2018-02-17T03:23:41.830Z,10.60
2018-02-17T03:26:09.835Z,10.80
2018-02-17T03:28:37.884Z,9.38
2018-02-17T03:31:05.846Z,11.15
2018-02-17T03:33:33.889Z,11.00
2018-02-17T03:36:01.837Z,10.20
2018-02-17T03:38:30.636Z,10.93
2018-02-17T03:40:58.598Z,13.73
2018-02-17T03:43:27.367Z,10.95
2018-02-17T03:45:55.305Z,11.48
2018-02-17T03:48:24.121Z,11.60
2018-02-17T03:50:52.071Z,12.07
2018-02-17T03:53:22.099Z,11.82
2018-02-17T03:55:50.058Z,11.25
2018-02-17T03:58:18.066Z,11.38
2018-02-17T04:00:46.069Z,11.20
2018-02-17T04:03:14.081Z,13.48
2018-02-17T04:05:42.106Z,11.43
2018-02-17T04:08:10.198Z,11.60
2018-02-17T04:10:38.128Z,11.55
2018-02-17T04:13:06.150Z,12.77
2018-02-17T04:15:34.131Z,11.40
2018-02-17T04:18:02.169Z,11.82
2018-02-17T04:20:30.175Z,10.98
2018-02-17T04:23:02.380Z,12.98
2018-02-17T04:25:30.428Z,10.73
2018-02-17T04:27:58.382Z,11.57
2018-02-17T04:30:26.405Z,12.07
2018-02-17T04:32:54.374Z,11.20
2018-02-17T04:35:22.358Z,11.63
2018-02-17T04:37:50.361Z,12.10
2018-02-17T04:40:34.093Z,10.70
2018-02-17T04:43:04.927Z,10.40
2018-02-17T04:45:38.407Z,10.18
2018-02-17T04:48:07.860Z,10.20
2018-02-17T04:50:41.422Z,10.80
2018-02-17T04:53:12.611Z,9.60
2018-02-17T04:55:47.219Z,11.98
2018-02-17T04:58:19.148Z,14.13
2018-02-17T05:00:50.963Z,12.75
2018-02-17T05:03:25.526Z,12.02
2018-02-17T05:09:02.498Z,13.02
2018-02-17T05:11:32.791Z,10.85
2018-02-17T05:14:04.294Z,11.07
2018-02-17T05:16:45.779Z,10.45
2018-02-17T05:19:23.133Z,10.43
2018-02-17T05:21:54.288Z,10.80
2018-02-17T05:24:28.395Z,11.32
2018-02-17T05:27:01.850Z,11.00
2018-02-17T05:29:31.650Z,12.55
2018-02-17T05:32:03.257Z,14.75
2018-02-17T05:34:46.921Z,14.45
2018-02-17T05:37:14.910Z,19.10
2018-02-17T05:39:52.829Z,17.45
2018-02-17T05:42:24.286Z,19.30
2018-02-17T05:44:57.824Z,17.10
2018-02-17T05:47:26.644Z,15.57
2018-02-17T05:50:04.646Z,15.98
2018-02-17T05:52:32.632Z,14.65
2018-02-17T05:55:00.666Z,14.87
2018-02-17T05:57:28.623Z,16.98
2018-02-17T05:59:56.608Z,18.50
2018-02-17T06:02:24.558Z,15.18
2018-02-17T06:04:52.598Z,14.20
2018-02-17T06:07:20.637Z,15.45
2018-02-17T06:09:48.660Z,15.50
2018-02-17T06:12:16.848Z,14.95
2018-02-17T06:14:44.914Z,14.23
2018-02-17T06:17:12.936Z,12.80
2018-02-17T06:19:40.888Z,13.18
2018-02-17T06:22:09.651Z,12.50
2018-02-17T06:24:37.674Z,12.55
2018-02-17T06:27:05.692Z,15.73
2018-02-17T06:29:33.643Z,12.43
2018-02-17T06:32:01.642Z,14.65
2018-02-17T06:34:29.784Z,12.50
2018-02-17T06:36:57.808Z,12.65
2018-02-17T06:39:26.682Z,12.00
2018-02-17T06:41:54.709Z,12.00
2018-02-17T06:44:22.703Z,12.82
2018-02-17T06:46:50.658Z,12.25
2018-02-17T06:49:18.686Z,13.40
2018-02-17T06:51:46.694Z,13.38
2018-02-17T06:54:14.674Z,13.10
2018-02-17T06:56:42.694Z,12.27
2018-02-17T06:59:10.640Z,13.38
2018-02-17T07:01:38.724Z,12.35
2018-02-17T07:04:07.595Z,13.40
2018-02-17T07:06:35.597Z,13.43
2018-02-17T07:09:04.414Z,13.15
2018-02-17T07:11:32.416Z,12.60
2018-02-17T07:14:06.009Z,12.63
2018-02-17T07:16:34.037Z,12.63
2018-02-17T07:19:02.731Z,13.85
2018-02-17T07:21:30.851Z,14.25
2018-02-17T07:23:59.010Z,14.25
2018-02-17T07:26:27.037Z,13.65
2018-02-17T07:28:55.788Z,13.10
2018-02-17T07:31:23.774Z,12.20
2018-02-17T07:33:51.789Z,12.23
2018-02-17T07:36:19.723Z,12.18
2018-02-17T07:38:47.695Z,13.27
2018-02-17T07:41:16.467Z,10.52
2018-02-17T07:43:44.422Z,12.50
2018-02-17T07:46:12.430Z,12.80
2018-02-17T07:48:41.142Z,12.35
2018-02-17T07:51:09.102Z,13.52
2018-02-17T07:53:38.301Z,12.90
2018-02-17T07:56:06.254Z,10.93
2018-02-17T07:58:35.023Z,12.55
2018-02-17T08:01:02.972Z,11.10
2018-02-17T08:03:30.968Z,10.55
2018-02-17T08:05:58.917Z,11.50
2018-02-17T08:08:26.973Z,11.25
2018-02-17T08:10:54.909Z,11.32
2018-02-17T08:13:22.952Z,11.02
2018-02-17T08:15:50.904Z,11.75
2018-02-17T08:18:18.948Z,12.55
2018-02-17T08:20:46.894Z,10.93
2018-02-17T08:23:17.001Z,10.95
2018-02-17T08:25:44.935Z,10.75
2018-02-17T08:28:12.928Z,10.52
2018-02-17T08:30:40.928Z,11.80
2018-02-17T08:33:08.956Z,12.07
2018-02-17T08:35:36.882Z,13.73
2018-02-17T08:38:04.868Z,15.25
2018-02-17T08:40:32.809Z,15.10
2018-02-17T08:43:00.819Z,14.50
2018-02-17T08:45:28.782Z,14.75
2018-02-17T08:47:56.783Z,13.48
2018-02-17T08:50:24.712Z,11.85
2018-02-17T08:52:52.815Z,11.93
2018-02-17T08:55:20.722Z,11.20
2018-02-17T08:57:49.499Z,10.68
2018-02-17T09:00:17.390Z,10.35
2018-02-17T09:02:49.812Z,10.95
2018-02-17T09:05:18.268Z,11.48
2018-02-17T09:07:46.290Z,11.93
2018-02-17T09:10:14.217Z,13.43
2018-02-17T09:12:42.217Z,12.95
2018-02-17T09:15:10.195Z,12.40
2018-02-17T09:17:38.149Z,12.75
2018-02-17T09:20:06.081Z,12.32
2018-02-17T09:22:34.297Z,11.57
2018-02-17T09:25:02.265Z,12.40
2018-02-17T09:27:30.358Z,12.15
2018-02-17T09:29:59.065Z,10.93
2018-02-17T09:32:27.816Z,11.75
2018-02-17T09:34:55.728Z,11.50
2018-02-17T09:37:23.918Z,10.98
2018-02-17T09:39:51.829Z,11.93
2018-02-17T09:42:22.340Z,11.02
2018-02-17T09:45:00.048Z,10.20
2018-02-17T09:47:28.591Z,10.45
2018-02-17T09:49:56.509Z,10.50
2018-02-17T09:52:24.514Z,16.87
2018-02-17T09:54:53.205Z,14.75
2018-02-17T09:57:21.958Z,12.90
2018-02-17T09:59:49.878Z,14.93
2018-02-17T10:02:17.866Z,12.15
2018-02-17T10:04:45.783Z,10.57
2018-02-17T10:07:14.096Z,10.77
2018-02-17T10:09:43.335Z,11.43
2018-02-17T10:12:12.325Z,10.80
2018-02-17T10:14:43.114Z,9.95
2018-02-17T10:17:11.074Z,10.27
2018-02-17T10:19:38.973Z,10.88
2018-02-17T10:22:06.873Z,10.93
2018-02-17T10:24:36.245Z,10.40
2018-02-17T10:27:04.184Z,10.60
2018-02-17T10:29:32.160Z,11.32
2018-02-17T10:32:00.831Z,10.07
2018-02-17T10:34:28.895Z,10.00
2018-02-17T10:36:56.815Z,10.48
2018-02-17T10:39:24.820Z,9.77
2018-02-17T10:41:52.776Z,10.70
2018-02-17T10:44:20.741Z,10.20
2018-02-17T10:46:48.668Z,10.13
2018-02-17T10:49:16.652Z,18.65
2018-02-17T10:51:44.598Z,13.65
2018-02-17T10:54:15.926Z,16.50
2018-02-17T10:56:43.905Z,13.88
2018-02-17T10:59:11.868Z,12.80
2018-02-17T11:01:39.836Z,11.90
2018-02-17T11:04:07.809Z,11.57
2018-02-17T11:06:35.734Z,11.30
2018-02-17T11:09:03.784Z,10.38
2018-02-17T11:11:31.683Z,10.02
2018-02-17T11:13:59.653Z,10.77
2018-02-17T11:16:27.604Z,11.38
2018-02-17T11:18:55.568Z,11.68
2018-02-17T11:21:23.545Z,12.32
2018-02-17T11:23:51.583Z,11.10
2018-02-17T11:26:19.492Z,9.90
2018-02-17T11:28:47.516Z,10.10
2018-02-17T11:31:15.426Z,11.27
2018-02-17T11:33:43.401Z,11.00
2018-02-17T11:36:11.317Z,12.57
2018-02-17T11:38:39.276Z,13.15
2018-02-17T11:41:07.201Z,13.27
2018-02-17T11:43:35.171Z,14.73
2018-02-17T11:46:03.077Z,14.35
2018-02-17T11:48:31.054Z,16.12
2018-02-17T11:50:59.040Z,16.08
2018-02-17T11:53:28.190Z,18.08
2018-02-17T11:55:56.094Z,17.08
2018-02-17T11:58:24.031Z,20.12
2018-02-17T12:00:52.013Z,15.85
2018-02-17T12:03:20.005Z,16.58
2018-02-17T12:05:47.909Z,16.55
2018-02-17T12:08:15.923Z,15.63
2018-02-17T12:10:43.860Z,14.60
2018-02-17T12:13:11.844Z,15.60
2018-02-17T12:15:39.748Z,15.30
2018-02-17T12:18:07.714Z,13.62
2018-02-17T12:20:35.640Z,13.13
2018-02-17T12:23:08.513Z,11.30
2018-02-17T12:25:36.514Z,10.95
2018-02-17T12:28:08.654Z,9.88
2018-02-17T12:30:36.614Z,8.88
2018-02-17T12:33:04.636Z,8.27
2018-02-17T12:35:32.592Z,7.97
2018-02-17T12:38:00.557Z,7.60
2018-02-17T12:40:28.462Z,7.05
2018-02-17T12:42:56.654Z,6.70
2018-02-17T12:45:24.622Z,6.30
2018-02-17T12:47:52.555Z,8.27
2018-02-17T12:50:20.541Z,7.12
2018-02-17T12:52:48.544Z,7.40
2018-02-17T12:55:16.452Z,7.25
2018-02-17T12:57:44.389Z,6.55
2018-02-17T13:00:12.377Z,6.68
2018-02-17T13:02:43.939Z,6.05
2018-02-17T13:05:11.973Z,6.50
2018-02-17T13:10:28.246Z,6.00
2018-02-17T13:12:58.130Z,5.50
2018-02-17T13:15:27.719Z,6.50
2018-02-17T13:20:41.551Z,6.85
2018-02-17T13:23:09.762Z,7.82
2018-02-17T13:25:37.707Z,8.65
2018-02-17T13:28:05.689Z,7.10
2018-02-17T13:30:33.828Z,7.20
2018-02-17T13:33:01.816Z,7.68
2018-02-17T13:35:29.715Z,6.90
2018-02-17T13:38:01.229Z,6.72
2018-02-17T13:40:29.219Z,7.03
2018-02-17T13:42:57.202Z,6.40
2018-02-17T13:45:25.184Z,7.53
2018-02-17T13:47:53.129Z,6.55
2018-02-17T13:50:21.099Z,6.75
2018-02-17T13:52:51.177Z,6.35
2018-02-17T13:55:19.136Z,6.65
2018-02-17T13:57:47.828Z,6.28
2018-02-17T14:00:15.794Z,6.43
2018-02-17T14:02:43.762Z,6.85
2018-02-17T14:05:11.908Z,6.18
2018-02-17T14:07:39.843Z,6.20
2018-02-17T14:10:07.793Z,6.75
2018-02-17T14:12:35.684Z,5.75
2018-02-17T14:15:03.711Z,6.10
2018-02-17T14:17:31.675Z,7.37
2018-02-17T14:19:59.635Z,6.68
2018-02-17T14:22:27.712Z,7.72
2018-02-17T14:24:55.821Z,6.15
2018-02-17T14:27:23.746Z,6.87
2018-02-17T14:29:51.728Z,6.82
2018-02-17T14:32:19.668Z,7.87
2018-02-17T14:34:47.624Z,7.00
2018-02-17T14:37:15.561Z,7.25
2018-02-17T14:39:43.581Z,6.05
2018-02-17T14:42:11.513Z,7.32
2018-02-17T14:44:39.470Z,6.62
2018-02-17T14:47:07.376Z,7.78
2018-02-17T14:49:35.406Z,6.78
2018-02-17T14:52:03.372Z,7.55
2018-02-17T14:54:32.113Z,8.30
2018-02-17T14:57:00.030Z,7.57
2018-02-17T14:59:27.981Z,7.93
2018-02-17T15:01:55.918Z,7.65
2018-02-17T15:04:23.887Z,8.45
2018-02-17T15:06:51.791Z,9.27
2018-02-17T15:09:19.771Z,7.25
2018-02-17T15:11:47.690Z,8.20
2018-02-17T15:14:15.773Z,8.57
2018-02-17T15:16:43.742Z,7.32
2018-02-17T15:19:11.696Z,8.00
2018-02-17T15:21:39.652Z,7.53
2018-02-17T15:24:07.611Z,7.70
2018-02-17T15:26:35.548Z,7.72
2018-02-17T15:29:03.695Z,8.98
2018-02-17T15:31:31.590Z,9.10
2018-02-17T15:33:59.559Z,9.63
2018-02-17T15:36:27.490Z,8.20
2018-02-17T15:38:55.504Z,8.18
2018-02-17T15:41:23.501Z,9.20
2018-02-17T15:43:55.094Z,8.80
2018-02-17T15:46:23.003Z,8.32
2018-02-17T15:48:50.980Z,8.90
2018-02-17T15:51:18.890Z,9.23
2018-02-17T15:53:46.951Z,8.57
2018-02-17T15:56:14.860Z,7.25
2018-02-17T15:58:42.857Z,6.97
2018-02-17T16:01:11.582Z,7.70
2018-02-17T16:03:39.534Z,7.35
2018-02-17T16:06:07.427Z,6.68
2018-02-17T16:08:35.402Z,8.57
2018-02-17T16:11:04.105Z,7.62
2018-02-17T16:13:34.064Z,6.10
2018-02-17T16:16:02.805Z,7.03
2018-02-17T16:18:30.702Z,7.97
2018-02-17T16:20:58.732Z,7.40
2018-02-17T16:23:26.640Z,7.05
2018-02-17T16:25:54.615Z,7.32
2018-02-17T16:28:22.527Z,7.75
2018-02-17T16:30:51.223Z,8.00
2018-02-17T16:33:19.136Z,7.50
2018-02-17T16:35:47.101Z,7.45
2018-02-17T16:38:15.009Z,8.38
2018-02-17T16:40:42.997Z,7.90
2018-02-17T16:43:10.951Z,8.70
2018-02-17T16:45:38.914Z,7.43
2018-02-17T16:48:06.822Z,7.85
2018-02-17T16:50:34.797Z,7.20
2018-02-17T16:53:02.702Z,7.30
2018-02-17T16:55:30.679Z,7.65
2018-02-17T16:57:59.365Z,7.37
2018-02-17T17:00:28.099Z,8.05
2018-02-17T17:02:56.136Z,7.65
2018-02-17T17:05:24.866Z,8.65
2018-02-17T17:07:52.835Z,7.35
2018-02-17T17:10:20.856Z,8.07
2018-02-17T17:12:50.026Z,9.00
2018-02-17T17:15:17.995Z,8.18
2018-02-17T17:17:45.907Z,8.23
2018-02-17T17:20:13.871Z,9.05
2018-02-17T17:22:42.648Z,9.23
2018-02-17T17:25:11.404Z,9.88
2018-02-17T17:27:39.326Z,10.90
2018-02-17T17:30:07.350Z,8.05
2018-02-17T17:32:35.329Z,7.00
2018-02-17T17:35:03.269Z,6.65
2018-02-17T17:37:31.188Z,8.27
2018-02-17T17:40:01.901Z,8.27
2018-02-17T17:42:35.683Z,8.55
2018-02-17T17:45:03.728Z,8.30
2018-02-17T17:47:32.423Z,7.37
2018-02-17T17:50:00.406Z,10.10
2018-02-17T17:52:28.310Z,7.43
2018-02-17T17:54:56.310Z,7.28
2018-02-17T17:57:24.260Z,8.35
2018-02-17T17:59:52.248Z,8.02
2018-02-17T18:02:23.232Z,7.40
2018-02-17T18:04:51.353Z,9.48
2018-02-17T18:07:19.242Z,8.30
2018-02-17T18:09:47.209Z,8.30
2018-02-17T18:12:15.121Z,8.70
2018-02-17T18:14:43.069Z,9.10
2018-02-17T18:17:10.979Z,9.45
2018-02-17T18:19:38.959Z,8.38
2018-02-17T18:22:06.870Z,9.38
2018-02-17T18:24:34.819Z,9.40
2018-02-17T18:27:03.511Z,9.27
2018-02-17T18:29:32.252Z,9.07
2018-02-17T18:32:00.166Z,9.65
2018-02-17T18:34:28.938Z,9.77
2018-02-17T18:36:56.909Z,9.75
2018-02-17T18:39:24.819Z,10.57
2018-02-17T18:41:52.772Z,10.80
2018-02-17T18:44:20.755Z,10.90
2018-02-17T18:46:48.676Z,10.48
2018-02-17T18:49:16.608Z,11.40
2018-02-17T18:51:44.580Z,11.63
2018-02-17T18:54:12.618Z,12.45
2018-02-17T18:56:41.349Z,10.30
2018-02-17T18:59:09.272Z,10.57
2018-02-17T19:01:37.354Z,10.48
2018-02-17T19:04:05.305Z,12.15
2018-02-17T19:06:34.120Z,12.15
2018-02-17T19:09:02.038Z,11.75
2018-02-17T19:11:30.031Z,11.07
2018-02-17T19:13:58.753Z,14.02
2018-02-17T19:16:26.931Z,13.27
2018-02-17T19:18:54.908Z,10.43
2018-02-17T19:21:22.946Z,9.65
2018-02-17T19:23:51.767Z,11.70
2018-02-17T19:26:19.746Z,11.45
2018-02-17T19:28:47.667Z,10.10
2018-02-17T19:31:15.690Z,9.50
2018-02-17T19:33:43.620Z,9.52
2018-02-17T19:36:12.476Z,10.52
2018-02-17T19:38:40.397Z,10.23
2018-02-17T19:41:08.372Z,9.50
2018-02-17T19:43:36.337Z,9.65
2018-02-17T19:46:04.342Z,10.52
2018-02-17T19:48:32.269Z,8.68
2018-02-17T19:51:00.237Z,8.80
2018-02-17T19:53:28.207Z,10.35
2018-02-17T19:55:56.251Z,10.27
2018-02-17T19:58:24.268Z,10.00
2018-02-17T20:00:52.238Z,10.27
2018-02-17T20:03:20.204Z,10.05
2018-02-17T20:05:48.174Z,9.75
2018-02-17T20:08:16.118Z,11.63
2018-02-17T20:10:44.836Z,10.25
2018-02-17T20:13:12.734Z,11.50
2018-02-17T20:15:40.706Z,12.30
2018-02-17T20:18:08.619Z,12.93
2018-02-17T20:20:37.346Z,11.05
2018-02-17T20:23:05.380Z,10.70
2018-02-17T20:25:34.136Z,11.05
2018-02-17T20:28:02.143Z,10.73
2018-02-17T20:30:30.114Z,9.82
2018-02-17T20:32:58.064Z,10.60
2018-02-17T20:35:26.018Z,10.88
2018-02-17T20:37:54.008Z,10.93
2018-02-17T20:40:22.045Z,10.75
2018-02-17T20:42:49.961Z,11.85
2018-02-17T20:45:18.786Z,12.98
2018-02-17T20:47:46.719Z,10.75
2018-02-17T20:50:15.484Z,11.40
2018-02-17T20:52:43.715Z,11.98
2018-02-17T20:55:13.317Z,10.82
2018-02-17T20:57:41.349Z,10.95
2018-02-17T21:00:10.115Z,10.25
2018-02-17T21:02:38.030Z,10.90
2018-02-17T21:05:06.011Z,9.80
2018-02-17T21:07:33.948Z,10.27
2018-02-17T21:10:01.946Z,10.10
2018-02-17T21:12:29.941Z,10.50
2018-02-17T21:14:57.910Z,11.00
2018-02-17T21:17:25.826Z,10.07
2018-02-17T21:19:53.736Z,10.65
2018-02-17T21:22:22.567Z,15.68
2018-02-17T21:24:52.133Z,13.77
2018-02-17T21:27:20.222Z,12.65
2018-02-17T21:29:48.576Z,13.15
2018-02-17T21:32:17.093Z,11.68
2018-02-17T21:34:45.514Z,10.27
2018-02-17T21:37:14.098Z,10.85
2018-02-17T21:39:43.608Z,10.68
2018-02-17T21:42:12.339Z,11.70
2018-02-17T21:44:41.452Z,10.40
2018-02-17T21:47:09.776Z,11.10
2018-02-17T21:49:38.822Z,11.20
2018-02-17T21:52:07.569Z,11.40
2018-02-17T21:54:35.768Z,12.80
2018-02-17T21:57:04.366Z,10.75
2018-02-17T21:59:32.712Z,10.38
2018-02-17T22:02:01.277Z,12.13
2018-02-17T22:04:30.802Z,13.30
2018-02-17T22:06:59.548Z,12.75
2018-02-17T22:09:27.648Z,12.00
2018-02-17T22:11:56.063Z,12.90
2018-02-17T22:14:24.990Z,14.10
2018-02-17T22:16:53.037Z,15.20
2018-02-17T22:19:21.921Z,13.57
2018-02-17T22:21:51.402Z,13.82
2018-02-17T22:24:19.342Z,14.87
2018-02-17T22:26:47.319Z,15.27
2018-02-17T22:29:15.241Z,15.13
2018-02-17T22:31:43.191Z,16.73
2018-02-17T22:34:12.279Z,18.75
2018-02-17T22:36:41.024Z,19.48
2018-02-17T22:39:08.923Z,20.27
2018-02-17T22:41:36.867Z,19.20
2018-02-17T22:44:04.781Z,18.05
2018-02-17T22:46:32.814Z,21.02
2018-02-17T22:49:00.755Z,18.30
2018-02-17T22:51:28.735Z,17.40
2018-02-17T22:53:56.652Z,17.73
2018-02-17T22:56:24.624Z,22.92
2018-02-17T22:58:52.543Z,16.90
2018-02-17T23:01:20.526Z,17.48
2018-02-17T23:03:48.545Z,18.77
2018-02-17T23:06:16.514Z,16.30
2018-02-17T23:08:44.456Z,13.45
2018-02-17T23:11:12.433Z,13.32
2018-02-17T23:13:41.127Z,14.70
2018-02-17T23:16:09.882Z,13.70
2018-02-17T23:18:37.798Z,12.93
2018-02-17T23:21:05.789Z,14.75
2018-02-17T23:23:33.720Z,16.35
2018-02-17T23:26:02.473Z,14.10
2018-02-17T23:28:30.434Z,15.30
2018-02-17T23:30:58.519Z,13.40
2018-02-17T23:33:27.717Z,13.23
2018-02-17T23:35:55.708Z,14.48
2018-02-17T23:38:23.751Z,13.23
2018-02-17T23:40:52.549Z,13.50
2018-02-17T23:43:20.552Z,13.40
2018-02-17T23:45:48.554Z,12.40
2018-02-17T23:48:16.549Z,13.57
2018-02-17T23:50:44.554Z,12.15
2018-02-17T23:53:12.482Z,12.45
2018-02-17T23:55:40.402Z,11.80
2018-02-17T23:58:08.442Z,11.63
